Time;durP1;ratioP1;P1;durP2;ratioP2;P2;SDS_P1;SDS_P2;PMS_P1;PMS_P2;Temp;Humidity;BMP_temperature;BMP_pressure;BME280_temperature;BME280_humidity;BME280_pressure;Samples;Min_cycle;Max_cycle;Signal;HPM_P1;HPM_P2
2021/01/05 00:00:49;;;;;;;2.40;2.20;;;;;;;21.00;40.66;100908.69;5052617;28;20519;-65
2021/01/05 00:03:15;;;;;;;2.43;2.23;;;;;;;21.04;40.22;100905.41;5052417;28;20175;-66
2021/01/05 00:05:41;;;;;;;2.23;2.13;;;;;;;21.07;40.32;100899.63;5052512;28;20207;-65
2021/01/05 00:08:07;;;;;;;2.40;2.20;;;;;;;21.11;40.26;100900.97;5052515;28;20267;-65
2021/01/05 00:10:33;;;;;;;2.27;2.17;;;;;;;21.15;40.43;100906.91;5034657;28;20643;-64
2021/01/05 00:12:59;;;;;;;2.50;2.30;;;;;;;21.17;40.00;100909.44;5052312;28;20231;-64
2021/01/05 00:15:25;;;;;;;2.70;2.50;;;;;;;21.18;40.07;100908.41;5052278;28;20644;-64
2021/01/05 00:17:51;;;;;;;2.40;2.30;;;;;;;21.19;40.20;100918.25;5052304;28;20271;-64
2021/01/05 00:20:19;;;;;;;2.23;2.13;;;;;;;21.21;39.81;100910.75;5052260;28;20607;-64
2021/01/05 00:22:45;;;;;;;2.30;2.20;;;;;;;21.21;39.79;100914.34;5052126;28;20176;-64
2021/01/05 00:25:12;;;;;;;2.43;2.23;;;;;;;21.20;40.06;100907.19;5052026;28;20239;-64
2021/01/05 00:27:39;;;;;;;2.33;2.13;;;;;;;21.18;39.81;100909.25;5052228;28;20604;-64
2021/01/05 00:30:08;;;;;;;2.43;2.30;;;;;;;21.17;40.22;100909.44;5034831;28;20181;-64
2021/01/05 00:32:34;;;;;;;2.60;2.40;;;;;;;21.11;39.97;100914.56;5052147;28;20176;-65
2021/01/05 00:35:00;;;;;;;2.70;2.50;;;;;;;21.07;39.79;100907.81;5052136;28;20536;-64
2021/01/05 00:37:26;;;;;;;2.30;2.20;;;;;;;21.03;39.79;100914.59;5052102;28;20184;-64
2021/01/05 00:39:52;;;;;;;2.80;2.60;;;;;;;21.00;39.97;100914.13;5034878;28;20752;-64
2021/01/05 00:42:18;;;;;;;2.40;2.20;;;;;;;20.97;39.91;100909.88;5034537;28;20264;-64
2021/01/05 00:44:44;;;;;;;2.20;2.10;;;;;;;20.96;40.05;100913.63;5034487;28;20204;-64
2021/01/05 00:47:10;;;;;;;2.73;2.53;;;;;;;20.96;40.06;100910.91;5051307;28;20636;-64
2021/01/05 00:49:36;;;;;;;2.40;2.30;;;;;;;20.95;40.00;100914.66;5051516;28;20276;-63
2021/01/05 00:52:03;;;;;;;2.50;2.40;;;;;;;20.93;39.73;100911.28;5051155;28;20184;-63
2021/01/05 00:54:29;;;;;;;2.70;2.50;;;;;;;20.92;39.70;100917.75;5033534;28;20204;-63
2021/01/05 00:57:03;;;;;;;2.60;2.50;;;;;;;20.93;39.83;100913.16;5033514;28;20271;-63
2021/01/05 00:59:29;;;;;;;2.40;2.20;;;;;;;20.89;39.86;100909.94;5017700;28;20240;-63
2021/01/05 01:01:56;;;;;;;2.53;2.43;;;;;;;20.89;39.69;100912.66;5051079;28;20267;-63
2021/01/05 01:04:22;;;;;;;2.40;2.27;;;;;;;20.88;39.84;100910.97;5050654;28;20286;-63
2021/01/05 01:06:48;;;;;;;2.53;2.33;;;;;;;20.90;40.05;100924.41;5054726;28;20181;-64
2021/01/05 01:09:14;;;;;;;2.33;2.20;;;;;;;20.88;40.00;100913.69;5054697;28;20184;-63
2021/01/05 01:12:02;;;;;;;2.63;2.43;;;;;;;20.91;39.78;100926.09;5037366;28;20199;-68
2021/01/05 01:14:28;;;;;;;2.20;2.10;;;;;;;20.90;40.22;100927.97;5054936;28;20291;-69
2021/01/05 01:16:55;;;;;;;2.50;2.30;;;;;;;20.92;40.12;100927.78;5055106;28;20267;-63
2021/01/05 01:19:21;;;;;;;2.23;2.13;;;;;;;20.94;40.29;100923.00;5055117;28;20211;-65
2021/01/05 01:21:48;;;;;;;2.40;2.30;;;;;;;20.97;40.34;100926.22;5055305;28;20242;-68
2021/01/05 01:24:14;;;;;;;2.23;2.13;;;;;;;21.00;40.05;100925.84;5037475;28;20658;-65
2021/01/05 01:26:41;;;;;;;2.00;1.90;;;;;;;21.03;40.30;100924.66;5037335;28;20177;-68
2021/01/05 01:29:07;;;;;;;2.30;2.20;;;;;;;21.05;40.32;100923.44;5054500;28;20479;-68
2021/01/05 01:31:33;;;;;;;2.33;2.23;;;;;;;21.08;39.99;100912.22;5054258;28;20192;-64
2021/01/05 01:33:59;;;;;;;2.07;1.97;;;;;;;21.11;40.13;100921.91;5036756;28;20196;-67
2021/01/05 01:36:25;;;;;;;2.30;2.20;;;;;;;21.13;39.84;100920.69;5020463;28;20188;-69
2021/01/05 01:38:51;;;;;;;2.27;2.07;;;;;;;21.15;39.76;100924.06;5054352;28;20542;-69
2021/01/05 01:41:17;;;;;;;2.63;2.43;;;;;;;21.17;39.93;100925.75;5054076;28;20212;-68
2021/01/05 01:43:43;;;;;;;2.30;2.20;;;;;;;21.18;39.79;100924.75;5020163;28;20793;-68
2021/01/05 01:46:09;;;;;;;2.40;2.30;;;;;;;21.18;39.54;100924.75;5036679;28;20195;-68
2021/01/05 01:48:36;;;;;;;2.27;2.10;;;;;;;21.16;39.73;100924.91;5036748;28;20233;-68
2021/01/05 01:51:02;;;;;;;2.20;2.10;;;;;;;21.13;39.85;100920.69;5054316;28;20279;-68
2021/01/05 01:53:31;;;;;;;2.17;2.07;;;;;;;21.11;39.75;100920.03;5054086;28;20561;-63
2021/01/05 01:56:06;;;;;;;2.10;2.00;;;;;;;21.10;39.72;100920.19;5053773;28;20184;-68
2021/01/05 01:58:43;;;;;;;2.43;2.23;;;;;;;21.04;39.57;100921.75;5020609;28;20199;-68
2021/01/05 02:01:44;;;;;;;2.50;2.30;;;;;;;21.01;39.55;100922.09;5037346;28;20188;-68
2021/01/05 02:04:37;;;;;;;2.30;2.20;;;;;;;20.99;39.70;100918.72;5053697;28;20251;-68
2021/01/05 02:07:21;;;;;;;2.20;2.10;;;;;;;20.97;39.49;100917.22;5021747;28;20188;-66
2021/01/05 02:10:06;;;;;;;2.40;2.30;;;;;;;20.96;39.51;100927.25;5053501;28;20180;-62
2021/01/05 02:16:26;;;;;;;2.27;2.17;;;;;;;20.94;39.51;100912.97;5065829;28;20257;-62
2021/01/05 02:19:00;;;;;;;2.37;2.20;;;;;;;20.93;39.67;100910.44;5040910;28;20183;-63
2021/01/05 02:21:31;;;;;;;2.20;2.10;;;;;;;20.91;39.65;100921.50;5055845;28;20349;-62
2021/01/05 02:24:18;;;;;;;2.23;2.13;;;;;;;20.92;39.71;100917.75;5055853;28;20226;-63
2021/01/05 02:26:56;;;;;;;2.23;2.13;;;;;;;20.92;40.10;100912.31;5073555;28;20190;-62
2021/01/05 02:29:28;;;;;;;2.40;2.27;;;;;;;20.95;39.79;100911.94;5040227;28;20190;-64
2021/01/05 02:32:05;;;;;;;2.27;2.17;;;;;;;20.98;39.81;100908.88;5039094;28;20192;-64
2021/01/05 02:34:51;;;;;;;2.50;2.30;;;;;;;21.00;40.13;100914.97;5039392;28;20207;-64
2021/01/05 02:37:40;;;;;;;2.10;2.00;;;;;;;21.05;39.84;100912.56;5040780;28;20191;-67
2021/01/05 02:40:24;;;;;;;2.20;2.10;;;;;;;21.06;40.12;100908.84;5016159;28;20276;-67
2021/01/05 02:43:15;;;;;;;2.07;1.97;;;;;;;21.09;40.02;100913.06;5017916;28;20184;-67
2021/01/05 02:45:59;;;;;;;2.30;2.20;;;;;;;21.09;39.90;100916.63;5015462;28;20209;-63
2021/01/05 02:48:56;;;;;;;2.03;1.93;;;;;;;21.11;39.89;100906.41;5001253;28;20621;-64
2021/01/05 02:51:32;;;;;;;2.40;2.30;;;;;;;21.12;39.90;100901.81;5032928;28;20189;-64
2021/01/05 02:54:16;;;;;;;2.30;2.20;;;;;;;21.10;39.59;100902.00;4999454;28;20209;-63
2021/01/05 02:56:55;;;;;;;2.20;2.00;;;;;;;21.10;39.82;100899.28;5032957;28;20683;-64
2021/01/05 03:00:02;;;;;;;2.20;2.10;;;;;;;21.09;39.53;100907.63;5015525;28;20327;-64
2021/01/05 03:02:58;;;;;;;2.30;2.20;;;;;;;21.08;39.50;100895.03;5010532;28;20287;-64
2021/01/05 03:05:24;;;;;;;2.30;2.20;;;;;;;21.04;39.78;100908.13;5016574;28;20681;-64
2021/01/05 03:07:50;;;;;;;2.27;2.17;;;;;;;21.03;39.51;100902.88;5032879;28;20181;-64
2021/01/05 03:10:29;;;;;;;2.20;2.10;;;;;;;21.01;39.40;100899.50;5015443;28;20181;-64
2021/01/05 03:13:21;;;;;;;2.50;2.30;;;;;;;21.01;39.52;100905.78;5015022;28;20204;-64
2021/01/05 03:15:57;;;;;;;2.63;2.50;;;;;;;20.98;39.54;100902.56;4997628;28;20201;-67
2021/01/05 03:18:41;;;;;;;2.40;2.30;;;;;;;20.95;39.35;100895.63;5015872;28;20249;-67
2021/01/05 03:21:30;;;;;;;2.40;2.30;;;;;;;20.96;39.40;100904.63;5032308;28;20527;-67
2021/01/05 03:23:57;;;;;;;2.27;2.17;;;;;;;20.92;39.62;100906.88;5015622;28;20228;-67
2021/01/05 03:26:29;;;;;;;2.07;1.97;;;;;;;20.91;39.54;100905.16;5014968;28;20189;-67
2021/01/05 03:28:55;;;;;;;2.27;2.17;;;;;;;20.90;39.66;100900.75;5015489;28;20185;-67
2021/01/05 03:31:21;;;;;;;2.10;2.00;;;;;;;20.92;39.86;100906.88;5032199;28;20185;-67
2021/01/05 03:33:48;;;;;;;2.23;2.13;;;;;;;20.95;39.94;100901.06;5032063;28;20212;-67
2021/01/05 03:36:14;;;;;;;2.27;2.10;;;;;;;20.97;40.09;100904.44;5014983;28;20656;-64
2021/01/05 03:38:40;;;;;;;2.30;2.20;;;;;;;21.00;40.10;100901.38;5014791;28;20239;-69
2021/01/05 03:41:07;;;;;;;1.90;1.80;;;;;;;21.04;40.09;100910.00;5032186;28;20192;-69
2021/01/05 03:43:33;;;;;;;2.13;2.03;;;;;;;21.07;39.92;100910.53;5014833;28;20209;-68
2021/01/05 03:45:59;;;;;;;2.10;2.00;;;;;;;21.10;40.04;100910.16;4998414;28;20505;-65
2021/01/05 03:48:25;;;;;;;2.10;2.00;;;;;;;21.13;39.88;100909.81;5014556;28;20239;-65
2021/01/05 03:50:51;;;;;;;2.30;2.20;;;;;;;21.17;39.96;100909.44;5014474;28;20184;-65
2021/01/05 03:53:17;;;;;;;2.10;2.00;;;;;;;21.21;39.79;100911.59;5031648;28;20177;-63
2021/01/05 03:55:43;;;;;;;2.20;2.10;;;;;;;21.24;40.09;100904.97;5014475;28;20569;-69
2021/01/05 03:58:09;;;;;;;2.50;2.40;;;;;;;21.27;40.02;100899.16;5014451;28;20181;-65
2021/01/05 04:00:36;;;;;;;2.17;2.07;;;;;;;21.29;39.81;100897.13;5031647;28;20251;-69
2021/01/05 04:03:02;;;;;;;2.10;2.00;;;;;;;21.31;39.58;100893.22;5014099;28;20180;-65
2021/01/05 04:05:28;;;;;;;2.20;2.10;;;;;;;21.32;39.78;100900.34;5013848;28;20304;-65
2021/01/05 04:07:55;;;;;;;2.30;2.20;;;;;;;21.33;39.46;100903.91;5031703;28;20185;-63
2021/01/05 04:10:21;;;;;;;2.23;2.13;;;;;;;21.34;39.31;100903.72;5014544;28;20189;-64
2021/01/05 04:12:47;;;;;;;2.20;2.10;;;;;;;21.34;39.32;100900.16;5014361;28;20613;-64
2021/01/05 04:15:24;;;;;;;2.20;2.10;;;;;;;21.34;39.44;100900.16;5014217;28;20209;-67
2021/01/05 04:17:51;;;;;;;2.40;2.27;;;;;;;21.32;39.16;100896.78;5014976;28;20188;-63
2021/01/05 04:20:17;;;;;;;2.20;2.10;;;;;;;21.29;39.36;100891.66;5014173;28;20185;-63
2021/01/05 04:22:43;;;;;;;2.57;2.37;;;;;;;21.25;39.12;100896.63;5014414;28;20244;-63
2021/01/05 04:25:10;;;;;;;2.20;2.10;;;;;;;21.22;39.36;100901.56;5031260;28;20331;-63
2021/01/05 04:27:36;;;;;;;2.33;2.23;;;;;;;21.18;39.12;100900.25;5014039;28;20195;-68
2021/01/05 04:30:03;;;;;;;2.50;2.30;;;;;;;21.12;39.20;100899.94;5013977;28;20192;-69
2021/01/05 04:32:29;;;;;;;2.50;2.37;;;;;;;21.10;39.41;100903.88;5014003;28;20674;-69
2021/01/05 04:34:55;;;;;;;2.20;2.10;;;;;;;21.09;39.45;100903.03;5014129;28;20630;-65
2021/01/05 04:37:21;;;;;;;2.20;2.10;;;;;;;21.10;39.33;100904.72;5014129;28;20177;-68
2021/01/05 04:39:47;;;;;;;2.37;2.20;;;;;;;21.09;39.53;100911.19;5031914;28;20265;-68
2021/01/05 04:42:24;;;;;;;2.40;2.30;;;;;;;21.09;39.45;100913.91;5035247;28;20535;-68
2021/01/05 04:44:54;;;;;;;2.33;2.23;;;;;;;21.09;39.28;100908.47;5017823;28;20671;-64
2021/01/05 04:47:41;;;;;;;2.67;2.47;;;;;;;21.08;39.32;100909.50;5018463;28;20617;-63
2021/01/05 04:50:14;;;;;;;2.30;2.20;;;;;;;21.09;39.68;100913.06;5020717;28;20271;-63
2021/01/05 04:52:42;;;;;;;2.30;2.20;;;;;;;21.07;39.65;100913.25;5017867;28;20192;-68
2021/01/05 04:55:37;;;;;;;2.20;2.10;;;;;;;21.08;39.59;100912.22;5017620;28;20539;-68
2021/01/05 04:58:28;;;;;;;2.37;2.27;;;;;;;21.08;39.34;100914.94;5017768;28;20769;-68
2021/01/05 05:00:55;;;;;;;2.30;2.20;;;;;;;21.06;39.67;100911.56;5018267;28;20252;-68
2021/01/05 05:03:42;;;;;;;2.67;2.47;;;;;;;21.07;39.63;100921.41;5017388;28;20525;-68
2021/01/05 05:06:45;;;;;;;2.40;2.30;;;;;;;21.07;39.57;100920.56;5018329;28;20189;-68
2021/01/05 05:09:47;;;;;;;2.50;2.40;;;;;;;21.04;39.50;100923.63;5034829;28;20184;-68
2021/01/05 05:12:23;;;;;;;2.30;2.20;;;;;;;21.02;39.52;100922.94;5017444;28;20206;-68
2021/01/05 05:15:04;;;;;;;2.90;2.70;;;;;;;21.02;39.40;100928.41;5017767;28;20215;-68
2021/01/05 05:17:47;;;;;;;2.53;2.33;;;;;;;21.02;39.78;100918.34;5017702;28;20259;-68
2021/01/05 05:20:16;;;;;;;2.30;2.20;;;;;;;21.01;39.65;100919.38;5017211;28;21217;-69
2021/01/05 05:23:13;;;;;;;2.53;2.40;;;;;;;21.04;39.74;100926.34;5034652;28;20200;-68
2021/01/05 05:25:42;;;;;;;2.20;2.10;;;;;;;21.05;39.76;100928.03;5034652;28;20648;-68
2021/01/05 05:28:12;;;;;;;2.43;2.27;;;;;;;21.07;39.72;100920.56;5017446;28;20185;-67
2021/01/05 05:30:39;;;;;;;2.30;2.20;;;;;;;21.08;39.86;100922.25;5001240;28;20537;-68
2021/01/05 05:33:16;;;;;;;2.60;2.47;;;;;;;21.10;39.72;100922.94;5034534;28;20200;-65
2021/01/05 05:36:13;;;;;;;2.53;2.43;;;;;;;21.13;39.62;100922.56;5018806;28;20204;-65
2021/01/05 05:39:01;;;;;;;2.70;2.50;;;;;;;21.15;39.69;100926.78;5034519;28;20178;-64
2021/01/05 05:41:34;;;;;;;2.47;2.27;;;;;;;21.13;39.44;100926.13;5034546;28;20276;-64
2021/01/05 05:44:16;;;;;;;2.60;2.50;;;;;;;21.13;39.55;100930.72;5017655;28;20217;-64
2021/01/05 05:46:45;;;;;;;2.83;2.63;;;;;;;21.13;39.38;100934.28;5016689;28;20200;-67
2021/01/05 05:49:37;;;;;;;2.60;2.50;;;;;;;21.13;39.42;100925.28;5016899;28;20655;-68
2021/01/05 05:52:04;;;;;;;2.43;2.33;;;;;;;21.11;39.41;100936.34;5032820;28;20193;-68
2021/01/05 05:54:31;;;;;;;2.40;2.30;;;;;;;21.11;39.26;100933.63;5016660;28;20207;-67
2021/01/05 05:57:35;;;;;;;2.50;2.40;;;;;;;21.13;39.39;100939.75;5016700;28;20185;-67
2021/01/05 06:00:23;;;;;;;2.70;2.50;;;;;;;21.13;39.32;100942.47;5016750;28;20247;-67
2021/01/05 06:02:49;;;;;;;2.63;2.43;;;;;;;21.11;39.48;100947.25;5018084;28;20201;-68
2021/01/05 06:05:20;;;;;;;2.67;2.47;;;;;;;21.12;39.43;100940.78;5016337;28;20235;-67
2021/01/05 06:07:46;;;;;;;2.60;2.50;;;;;;;21.11;39.71;100941.81;5033691;28;20320;-68
2021/01/05 06:10:12;;;;;;;2.80;2.60;;;;;;;21.10;39.48;100940.09;5000015;28;20200;-63
2021/01/05 06:12:38;;;;;;;2.67;2.47;;;;;;;21.10;39.45;100948.28;5016631;28;20185;-68
2021/01/05 06:15:05;;;;;;;2.40;2.30;;;;;;;21.10;39.67;100945.53;5033829;28;20284;-68
2021/01/05 06:17:31;;;;;;;2.40;2.30;;;;;;;21.09;39.72;100952.03;5033485;28;20204;-68
2021/01/05 06:19:57;;;;;;;2.40;2.30;;;;;;;21.10;39.44;100947.41;5033481;28;20231;-68
2021/01/05 06:22:23;;;;;;;2.50;2.40;;;;;;;21.09;39.69;100946.56;5015819;28;20199;-69
2021/01/05 06:24:49;;;;;;;2.87;2.67;;;;;;;21.09;39.63;100952.03;5033189;28;20213;-67
2021/01/05 06:27:15;;;;;;;2.90;2.70;;;;;;;21.09;39.52;100960.19;5033494;28;20256;-63
2021/01/05 06:29:41;;;;;;;2.60;2.50;;;;;;;21.08;39.49;100955.78;5016027;28;20228;-64
2021/01/05 06:32:07;;;;;;;2.53;2.40;;;;;;;21.08;39.29;100954.91;5015775;28;20185;-65
2021/01/05 06:34:33;;;;;;;2.73;2.53;;;;;;;21.07;39.39;100955.94;5015939;28;20231;-68
2021/01/05 06:36:59;;;;;;;2.40;2.30;;;;;;;21.07;39.48;100959.53;5033236;28;20231;-68
2021/01/05 06:39:26;;;;;;;2.83;2.63;;;;;;;21.06;39.36;100965.13;5033177;28;20267;-64
2021/01/05 06:41:52;;;;;;;3.00;2.80;;;;;;;21.02;39.20;100961.91;5015920;28;20189;-64
2021/01/05 06:44:18;;;;;;;2.90;2.70;;;;;;;21.00;39.11;100965.84;5032961;28;20235;-64
2021/01/05 06:46:47;;;;;;;2.50;2.40;;;;;;;20.98;39.45;100960.56;5015746;28;20193;-64
2021/01/05 06:49:13;;;;;;;2.70;2.50;;;;;;;20.99;39.40;100967.72;5032712;28;20604;-64
2021/01/05 06:51:39;;;;;;;2.80;2.60;;;;;;;20.98;39.44;100960.56;5015632;28;20192;-65
2021/01/05 06:54:05;;;;;;;2.40;2.30;;;;;;;20.99;39.44;100959.53;5015529;28;20204;-68
2021/01/05 06:56:31;;;;;;;2.70;2.60;;;;;;;21.00;39.53;100958.50;5032721;28;20280;-68
2021/01/05 06:58:57;;;;;;;2.40;2.30;;;;;;;21.02;39.64;100967.34;5032627;28;20516;-68
2021/01/05 07:01:23;;;;;;;2.70;2.50;;;;;;;21.04;39.73;100959.00;5032576;28;20197;-64
2021/01/05 07:03:49;;;;;;;2.83;2.63;;;;;;;21.06;39.93;100967.88;5014666;28;20255;-63
2021/01/05 07:06:15;;;;;;;2.80;2.60;;;;;;;21.09;39.79;100967.50;5032521;28;20192;-62
2021/01/05 07:08:41;;;;;;;2.40;2.30;;;;;;;21.11;39.94;100960.84;5049855;28;20192;-63
2021/01/05 07:11:07;;;;;;;2.80;2.60;;;;;;;21.15;40.05;100964.91;5058547;28;20199;-63
2021/01/05 07:13:33;;;;;;;2.77;2.57;;;;;;;21.18;39.99;100960.13;5034961;28;20234;-64
2021/01/05 07:16:00;;;;;;;2.90;2.70;;;;;;;21.22;39.77;100975.06;5052401;28;20180;-68
2021/01/05 07:18:26;;;;;;;2.47;2.30;;;;;;;21.24;39.75;100973.91;5036327;28;20188;-67
2021/01/05 07:20:52;;;;;;;2.40;2.30;;;;;;;21.26;39.57;100968.25;5060322;28;20196;-68
2021/01/05 07:23:18;;;;;;;2.80;2.60;;;;;;;21.29;39.85;100976.91;5040721;28;20210;-67
2021/01/05 07:25:44;;;;;;;2.70;2.50;;;;;;;21.30;39.55;100972.34;5013337;28;20578;-68
2021/01/05 07:28:12;;;;;;;2.60;2.50;;;;;;;21.32;39.83;100970.28;5030477;28;20216;-69
2021/01/05 07:30:45;;;;;;;2.67;2.47;;;;;;;21.35;39.68;100973.50;5033351;28;20188;-69
2021/01/05 07:33:11;;;;;;;2.43;2.33;;;;;;;21.36;39.75;100966.19;5050840;28;20203;-68
2021/01/05 07:35:38;;;;;;;2.60;2.40;;;;;;;21.38;39.80;100969.56;5051664;28;20346;-69
2021/01/05 07:38:04;;;;;;;2.67;2.47;;;;;;;21.40;39.71;100972.94;5033697;28;20274;-69
2021/01/05 07:40:30;;;;;;;2.40;2.30;;;;;;;21.41;39.77;100977.38;5051745;28;20187;-73
2021/01/05 07:42:56;;;;;;;2.47;2.37;;;;;;;21.44;39.85;100977.84;5051003;28;20184;-64
2021/01/05 07:45:22;;;;;;;2.53;2.33;;;;;;;21.46;39.66;100974.94;5002100;28;20625;-62
2021/01/05 07:47:48;;;;;;;2.60;2.40;;;;;;;21.49;39.99;100974.59;5031732;28;20769;-68
2021/01/05 07:50:20;;;;;;;2.40;2.30;;;;;;;21.54;40.03;100968.63;5014311;28;20207;-64
2021/01/05 07:52:46;;;;;;;2.33;2.20;;;;;;;21.57;39.90;100980.00;5031758;28;20275;-63
2021/01/05 07:55:17;;;;;;;2.50;2.30;;;;;;;21.61;40.00;100972.31;5016026;28;20218;-63
2021/01/05 07:57:43;;;;;;;2.43;2.33;;;;;;;21.64;39.85;100967.34;5027463;28;20219;-68
2021/01/05 08:00:16;;;;;;;2.43;2.23;;;;;;;21.70;40.18;100977.50;5017430;28;20180;-68
2021/01/05 08:02:42;;;;;;;3.50;2.40;;;;;;;21.73;40.13;100979.00;5034746;28;20184;-68
2021/01/05 08:05:12;;;;;;;2.90;2.67;;;;;;;21.77;40.00;100980.34;5033568;28;20361;-68
2021/01/05 08:07:38;;;;;;;3.40;3.10;;;;;;;21.83;40.21;100981.50;5051360;28;20239;-68
2021/01/05 08:10:06;;;;;;;3.53;3.10;;;;;;;21.88;40.41;100987.25;5051355;28;20286;-68
2021/01/05 08:12:32;;;;;;;4.27;3.80;;;;;;;21.92;40.05;100983.09;5051011;28;20192;-68
2021/01/05 08:14:58;;;;;;;3.70;3.40;;;;;;;21.98;40.32;100990.53;5050297;28;20215;-69
2021/01/05 08:17:24;;;;;;;4.17;3.70;;;;;;;22.03;40.40;100988.13;5050948;28;20206;-62
2021/01/05 08:19:50;;;;;;;3.93;3.60;;;;;;;22.08;40.27;100983.00;5051177;28;20565;-63
2021/01/05 08:22:16;;;;;;;6.47;4.07;;;;;;;22.14;40.33;100990.44;5017460;28;20184;-62
2021/01/05 08:24:42;;;;;;;5.43;4.03;;;;;;;22.18;40.17;100986.31;5016882;28;20216;-63
2021/01/05 08:27:12;;;;;;;5.80;4.40;;;;;;;22.25;40.40;100989.16;5033660;28;20246;-63
2021/01/05 08:29:38;;;;;;;6.67;4.37;;;;;;;22.28;40.24;100997.81;5033642;28;20203;-63
2021/01/05 08:32:05;;;;;;;6.33;5.13;;;;;;;22.33;40.34;101006.28;5033626;28;20211;-68
2021/01/05 08:34:31;;;;;;;9.13;4.93;;;;;;;22.36;40.34;101005.91;5017048;28;20215;-68
2021/01/05 08:37:00;;;;;;;7.70;5.00;;;;;;;22.43;40.42;100996.97;5033363;28;20184;-68
2021/01/05 08:39:26;;;;;;;9.07;5.43;;;;;;;22.46;40.29;101005.63;5017327;28;20195;-68
2021/01/05 08:41:54;;;;;;;10.10;5.63;;;;;;;22.50;40.24;101004.22;5050805;28;20246;-67
2021/01/05 08:44:20;;;;;;;7.93;5.60;;;;;;;22.55;40.31;100998.22;5050659;28;20227;-68
2021/01/05 08:46:46;;;;;;;9.30;5.33;;;;;;;22.59;40.27;101013.16;5000366;28;20192;-68
2021/01/05 08:49:12;;;;;;;10.57;5.67;;;;;;;22.63;40.15;101019.94;5017013;28;20382;-68
2021/01/05 08:51:38;;;;;;;8.30;5.60;;;;;;;22.65;40.17;101005.06;5050870;28;20188;-68
2021/01/05 08:54:05;;;;;;;8.07;5.53;;;;;;;22.70;40.10;101012.69;5033391;28;20200;-64
2021/01/05 08:56:31;;;;;;;8.03;5.73;;;;;;;22.72;40.07;101005.19;5050705;28;20192;-64
2021/01/05 08:58:57;;;;;;;7.50;5.57;;;;;;;22.77;40.02;101018.25;5050639;28;20301;-64
2021/01/05 09:01:24;;;;;;;8.83;5.30;;;;;;;22.79;40.12;101006.13;5032656;28;20199;-64
2021/01/05 09:03:50;;;;;;;9.20;5.40;;;;;;;22.83;39.91;101002.00;5033042;28;20215;-63
2021/01/05 09:06:20;;;;;;;8.45;5.38;;;;;;;22.88;39.92;101005.00;5050910;28;20197;-64
2021/01/05 09:08:46;;;;;;;9.90;5.50;;;;;;;22.91;39.86;101010.09;5033623;28;20264;-64
2021/01/05 09:11:23;;;;;;;8.50;5.50;;;;;;;22.97;40.04;101011.22;5032085;28;20199;-64
2021/01/05 09:13:49;;;;;;;7.50;4.97;;;;;;;22.99;39.96;101011.03;5015939;28;20302;-64
2021/01/05 09:16:23;;;;;;;7.77;5.37;;;;;;;23.04;40.06;101008.56;5033346;28;20258;-64
2021/01/05 09:18:50;;;;;;;7.17;5.23;;;;;;;23.06;39.87;101009.22;4996804;28;20282;-64
2021/01/05 09:21:16;;;;;;;8.00;4.87;;;;;;;23.10;39.73;101010.53;5013519;28;20192;-64
2021/01/05 09:23:43;;;;;;;6.80;4.93;;;;;;;23.13;40.08;101007.41;5012904;28;20260;-64
2021/01/05 09:26:17;;;;;;;7.13;5.03;;;;;;;23.16;39.70;101012.50;5034226;28;20218;-67
2021/01/05 09:28:43;;;;;;;9.30;5.60;;;;;;;23.18;39.57;101016.72;5024917;28;20187;-67
2021/01/05 09:31:09;;;;;;;11.13;5.50;;;;;;;23.20;39.60;101016.56;5056323;28;20188;-67
2021/01/05 09:33:35;;;;;;;9.50;5.60;;;;;;;23.23;39.61;101016.19;5036426;28;20216;-65
2021/01/05 09:36:02;;;;;;;9.40;5.20;;;;;;;23.24;39.68;101010.53;5036602;28;20188;-68
2021/01/05 09:38:28;;;;;;;8.30;5.70;;;;;;;23.27;39.42;100998.34;5020048;28;20192;-68
2021/01/05 09:40:54;;;;;;;8.93;5.60;;;;;;;23.29;39.40;101007.22;5053990;28;20203;-68
2021/01/05 09:43:20;;;;;;;7.60;5.40;;;;;;;23.32;39.42;101001.34;5035411;28;20319;-67
2021/01/05 09:45:46;;;;;;;7.23;5.30;;;;;;;23.36;39.42;101001.81;5031946;28;20666;-69
2021/01/05 09:48:19;;;;;;;11.17;5.90;;;;;;;23.37;39.37;101001.63;5033561;28;20183;-65
2021/01/05 09:50:45;;;;;;;9.80;5.90;;;;;;;23.39;39.36;101005.00;5021911;28;20195;-65
2021/01/05 09:53:11;;;;;;;10.67;5.80;;;;;;;23.41;39.12;101005.66;5057087;28;20188;-65
2021/01/05 09:55:38;;;;;;;7.37;5.07;;;;;;;23.45;39.23;101014.34;5039948;28;20233;-65
2021/01/05 09:58:04;;;;;;;6.87;5.23;;;;;;;23.48;39.18;101017.53;5019490;28;20180;-64
2021/01/05 10:00:30;;;;;;;11.67;6.00;;;;;;;23.50;39.19;101015.44;5059242;28;20694;-65
2021/01/05 10:02:56;;;;;;;9.23;5.60;;;;;;;23.53;39.42;101014.22;5035972;28;20191;-65
2021/01/05 10:05:22;;;;;;;7.17;5.33;;;;;;;23.55;39.13;101014.84;5035863;28;20228;-64
2021/01/05 10:07:49;;;;;;;8.38;4.78;;;;;;;23.57;39.36;101008.19;5019401;28;20266;-64
2021/01/05 10:10:20;;;;;;;8.83;5.20;;;;;;;23.61;39.38;101010.53;5019526;28;20181;-64
2021/01/05 10:12:46;;;;;;;8.68;5.10;;;;;;;23.63;39.17;101009.28;5053223;28;20192;-65
2021/01/05 10:15:13;;;;;;;7.68;4.95;;;;;;;23.65;39.03;101006.34;5019290;28;20204;-65
2021/01/05 10:17:39;;;;;;;6.73;5.33;;;;;;;23.67;39.10;100999.69;5035819;28;20176;-65
2021/01/05 10:20:06;;;;;;;10.60;5.50;;;;;;;23.70;39.25;101001.19;5035668;28;20194;-64
2021/01/05 10:22:32;;;;;;;8.90;5.00;;;;;;;23.72;39.04;100996.38;5018984;28;20181;-64
2021/01/05 10:24:58;;;;;;;5.60;4.43;;;;;;;23.74;39.20;101007.94;5035693;28;20682;-64
2021/01/05 10:27:24;;;;;;;7.23;5.47;;;;;;;23.77;39.25;100993.88;5038868;28;20180;-64
2021/01/05 10:29:51;;;;;;;7.97;5.40;;;;;;;23.79;39.06;100991.78;5042489;28;20188;-68
2021/01/05 10:32:17;;;;;;;7.22;4.90;;;;;;;23.83;39.14;101006.75;5052791;28;20183;-67
2021/01/05 10:34:43;;;;;;;8.93;5.63;;;;;;;23.84;39.20;101001.09;5052612;28;20208;-68
2021/01/05 10:37:10;;;;;;;7.53;5.10;;;;;;;23.86;39.11;101001.75;5032190;28;20235;-68
2021/01/05 10:39:36;;;;;;;8.10;5.22;;;;;;;23.89;39.11;100997.75;5052902;28;20180;-68
2021/01/05 10:42:03;;;;;;;8.07;5.40;;;;;;;23.91;39.22;101003.91;5052530;28;20219;-69
2021/01/05 10:44:29;;;;;;;8.17;5.30;;;;;;;23.93;39.17;100993.63;5035235;28;20212;-65
2021/01/05 10:47:03;;;;;;;7.38;5.00;;;;;;;23.96;39.17;100998.69;5034999;28;20180;-65
2021/01/05 10:49:29;;;;;;;6.82;5.20;;;;;;;23.98;38.96;100987.56;5035597;28;20176;-65
2021/01/05 10:51:56;;;;;;;9.18;5.20;;;;;;;23.99;39.18;100998.28;5018698;28;20199;-65
2021/01/05 10:54:22;;;;;;;5.85;4.68;;;;;;;24.01;39.20;101001.69;5034658;28;20211;-65
2021/01/05 10:56:56;;;;;;;8.32;5.10;;;;;;;24.05;38.97;101005.69;5018588;28;20191;-71
2021/01/05 10:59:23;;;;;;;8.40;5.10;;;;;;;24.05;39.08;101002.97;5003315;28;20196;-66
2021/01/05 11:01:49;;;;;;;6.85;5.00;;;;;;;24.07;39.06;101000.88;5034267;28;20334;-65
2021/01/05 11:04:15;;;;;;;9.57;5.50;;;;;;;24.09;39.19;100996.06;5034625;28;20270;-65
2021/01/05 11:06:53;;;;;;;7.20;5.38;;;;;;;24.13;39.08;101000.09;5018372;28;20184;-65
2021/01/05 11:09:20;;;;;;;7.43;5.00;;;;;;;24.14;39.02;100996.34;5012406;28;20573;-64
2021/01/05 11:11:47;;;;;;;8.57;5.20;;;;;;;24.15;38.99;100992.56;4998313;28;20249;-65
2021/01/05 11:14:14;;;;;;;8.43;5.50;;;;;;;24.17;38.87;100989.63;5051802;28;20254;-65
2021/01/05 11:16:49;;;;;;;6.57;5.07;;;;;;;24.19;39.03;100988.38;5034906;28;20526;-66
2021/01/05 11:19:15;;;;;;;8.65;5.07;;;;;;;24.20;39.16;100994.69;5052125;28;20245;-65
2021/01/05 11:21:41;;;;;;;7.40;5.50;;;;;;;24.22;39.07;100991.75;5034686;28;20195;-65
2021/01/05 11:24:08;;;;;;;8.35;5.47;;;;;;;24.25;39.08;100991.34;5034313;28;20208;-65
2021/01/05 11:26:37;;;;;;;8.77;5.63;;;;;;;24.28;39.01;100986.34;5034073;28;20284;-65
2021/01/05 11:29:04;;;;;;;8.00;5.47;;;;;;;24.30;38.99;100980.69;5043184;28;20207;-65
2021/01/05 11:31:33;;;;;;;6.53;5.15;;;;;;;24.32;38.95;100970.38;5034128;28;20187;-65
2021/01/05 11:33:59;;;;;;;10.20;5.50;;;;;;;24.33;38.95;100972.06;5051735;28;20214;-65
2021/01/05 11:36:26;;;;;;;9.60;5.78;;;;;;;24.34;39.10;100974.59;5034466;28;20187;-65
2021/01/05 11:38:53;;;;;;;6.88;5.75;;;;;;;24.35;38.89;100964.50;5051452;28;20242;-65
2021/01/05 11:41:30;;;;;;;10.15;5.68;;;;;;;24.39;38.90;100960.34;5034062;28;20641;-65